Bluehole, Kentucky
Current Conditions -  °F | °C
As of 3:53 PM on Monday 24 Nov 2014 (Local Time) from KLOZ Reporting Station
Clear Clear  
Wind Chill: 63°   Ceiling: Unl
Heat Index: 63°   Visibility: 10mi
Dew Point: 38°   Wind: 16mph
Humidity: 40%   Direction: 260°W
Pressure: 29.74"   Gusts: NA
Location:  37.1101°N, 83.7537°W
Report Text: KLOZ 242053Z AUTO 26014KT 10SM CLR 17/03 A2974 RMK AO2 PK WND 24026/2029 SLP064 60000 T01720033 51029
Loading
Personal Weather Stations






























Interactive Weather Map New forecast layout! Learn more

10-Day Weather Forecast

Advertisements
Track Severe Weather on mobile